createdAt,value
2023-03-12T00:02:38.013Z,0.70
2023-03-12T00:05:41.145Z,0.70
2023-03-12T00:08:42.956Z,0.70
2023-03-12T00:11:44.513Z,0.70
2023-03-12T00:14:46.021Z,0.68
2023-03-12T00:17:47.666Z,0.55
2023-03-12T00:20:56.259Z,0.65
2023-03-12T00:23:57.873Z,0.63
2023-03-12T00:26:59.377Z,0.70
2023-03-12T00:30:00.893Z,0.60
2023-03-12T00:33:02.437Z,0.70
2023-03-12T00:36:04.511Z,0.70
2023-03-12T00:39:06.265Z,0.70
2023-03-12T00:42:07.857Z,0.80
2023-03-12T00:45:09.752Z,0.80
2023-03-12T00:48:11.256Z,0.60
2023-03-12T00:51:12.833Z,0.80
2023-03-12T00:54:14.339Z,0.80
2023-03-12T00:57:15.908Z,0.70
2023-03-12T01:00:17.855Z,0.70
2023-03-12T01:03:19.857Z,0.70
2023-03-12T01:06:21.526Z,0.80
2023-03-12T01:09:23.346Z,0.68
2023-03-12T01:12:26.367Z,0.70
2023-03-12T01:15:28.627Z,0.60
2023-03-12T01:18:30.255Z,0.60
2023-03-12T01:21:32.070Z,0.60
2023-03-12T01:24:33.642Z,0.60
2023-03-12T01:27:35.181Z,0.70
2023-03-12T01:30:36.808Z,0.70
2023-03-12T01:33:39.431Z,0.60
2023-03-12T01:36:41.351Z,0.60
2023-03-12T01:39:42.861Z,0.73
2023-03-12T01:42:52.218Z,0.70
2023-03-12T01:46:12.131Z,0.65
2023-03-12T01:49:24.022Z,0.60
2023-03-12T01:52:36.270Z,0.70
2023-03-12T01:55:38.687Z,0.80
2023-03-12T01:58:45.096Z,0.70
2023-03-12T02:01:47.355Z,0.60
2023-03-12T02:04:52.507Z,0.60
2023-03-12T02:07:55.024Z,0.73
2023-03-12T02:10:56.492Z,0.80
2023-03-12T02:13:58.150Z,0.65
2023-03-12T02:17:00.519Z,0.70
2023-03-12T02:20:20.346Z,0.80
2023-03-12T02:23:33.498Z,0.70
2023-03-12T02:26:37.905Z,0.63
2023-03-12T02:29:42.068Z,0.80
2023-03-12T02:32:45.657Z,0.70
2023-03-12T02:35:48.133Z,0.60
2023-03-12T02:38:52.026Z,0.60
2023-03-12T02:41:57.750Z,0.70
2023-03-12T02:45:00.409Z,0.70
2023-03-12T02:48:02.898Z,0.60
2023-03-12T02:51:04.600Z,0.80
2023-03-12T02:54:06.424Z,0.70
2023-03-12T02:57:08.314Z,0.80
2023-03-12T03:00:12.399Z,0.80
2023-03-12T03:03:15.926Z,0.80
2023-03-12T03:06:18.285Z,0.63
2023-03-12T03:09:22.336Z,0.70
2023-03-12T03:12:24.636Z,0.68
2023-03-12T03:15:27.109Z,0.55
2023-03-12T03:18:30.195Z,0.68
2023-03-12T03:21:32.203Z,0.60
2023-03-12T03:24:36.047Z,0.77
2023-03-12T03:27:37.655Z,0.65
2023-03-12T03:30:39.811Z,0.77
2023-03-12T03:33:43.303Z,0.80
2023-03-12T03:36:47.476Z,0.70
2023-03-12T03:39:50.884Z,0.70
2023-03-12T03:42:52.564Z,0.65
2023-03-12T03:45:59.806Z,0.70
2023-03-12T03:49:02.116Z,0.70
2023-03-12T03:52:04.700Z,0.60
2023-03-12T03:55:10.280Z,0.60
2023-03-12T03:58:12.262Z,0.70
2023-03-12T04:01:14.900Z,0.70
2023-03-12T04:04:17.642Z,0.70
2023-03-12T04:07:19.462Z,0.65
2023-03-12T04:10:22.040Z,0.70
2023-03-12T04:13:23.981Z,0.70
2023-03-12T04:16:26.199Z,0.70
2023-03-12T04:19:29.234Z,0.60
2023-03-12T04:22:30.822Z,0.50
2023-03-12T04:25:32.698Z,0.55
2023-03-12T04:28:35.412Z,0.70
2023-03-12T04:31:37.640Z,0.70
2023-03-12T04:34:39.253Z,0.80
2023-03-12T04:37:41.560Z,0.63
2023-03-12T04:40:43.964Z,0.75
2023-03-12T04:43:45.671Z,0.70
2023-03-12T04:46:48.394Z,0.60
2023-03-12T04:49:53.803Z,0.70
2023-03-12T04:52:55.694Z,0.68
2023-03-12T04:55:57.531Z,0.60
2023-03-12T04:58:59.169Z,0.80
2023-03-12T05:02:02.551Z,0.60
2023-03-12T05:05:06.778Z,0.70
2023-03-12T05:08:09.768Z,0.70
2023-03-12T05:11:11.585Z,0.70
2023-03-12T05:14:13.399Z,0.70
2023-03-12T05:17:15.990Z,0.80
2023-03-12T05:20:17.736Z,0.80
2023-03-12T05:23:21.301Z,0.70
2023-03-12T05:26:26.188Z,0.60
2023-03-12T05:29:35.407Z,0.55
2023-03-12T05:32:38.604Z,0.63
2023-03-12T05:35:40.243Z,0.60
2023-03-12T05:38:42.690Z,0.88
2023-03-12T05:41:45.596Z,0.63
2023-03-12T05:44:52.419Z,0.70
2023-03-12T05:47:56.157Z,0.60
2023-03-12T05:50:57.748Z,0.80
2023-03-12T05:53:59.428Z,0.73
2023-03-12T05:57:03.003Z,0.70
2023-03-12T06:00:05.445Z,0.80
2023-03-12T06:03:16.068Z,0.70
2023-03-12T06:06:18.996Z,0.80
2023-03-12T06:09:20.497Z,0.50
2023-03-12T06:12:21.994Z,0.80
2023-03-12T06:15:24.127Z,0.70
2023-03-12T06:18:25.717Z,0.60
2023-03-12T06:21:30.778Z,0.70
2023-03-12T06:24:32.867Z,1.05
2023-03-12T06:27:37.756Z,0.70
2023-03-12T06:30:39.283Z,0.68
2023-03-12T06:33:41.129Z,0.70
2023-03-12T06:36:42.600Z,0.70
2023-03-12T06:39:44.211Z,0.70
2023-03-12T06:42:45.659Z,0.60
2023-03-12T06:45:47.126Z,0.88
2023-03-12T06:48:49.051Z,0.63
2023-03-12T06:51:50.719Z,1.08
2023-03-12T06:54:52.319Z,0.70
2023-03-12T06:57:53.768Z,0.60
2023-03-12T07:00:55.587Z,0.85
2023-03-12T07:03:57.130Z,0.70
2023-03-12T07:06:58.625Z,0.80
2023-03-12T07:10:00.098Z,0.75
2023-03-12T07:13:01.769Z,0.65
2023-03-12T07:16:04.060Z,0.70
2023-03-12T07:19:05.547Z,0.70
2023-03-12T07:22:07.063Z,0.80
2023-03-12T07:25:09.759Z,0.70
2023-03-12T07:28:12.329Z,1.00
2023-03-12T07:31:13.864Z,0.90
2023-03-12T07:34:15.546Z,0.68
2023-03-12T07:37:17.200Z,0.65
2023-03-12T07:40:18.829Z,0.80
2023-03-12T07:43:21.243Z,0.90
2023-03-12T07:46:24.237Z,0.80
2023-03-12T07:49:27.480Z,0.80
2023-03-12T07:52:29.005Z,0.80
2023-03-12T07:55:31.504Z,0.80
2023-03-12T07:58:36.210Z,0.70
2023-03-12T08:01:37.883Z,0.70
2023-03-12T08:04:39.595Z,0.95
2023-03-12T08:07:41.219Z,0.80
2023-03-12T08:10:42.958Z,0.90
2023-03-12T08:13:44.577Z,0.90
2023-03-12T08:16:46.726Z,0.90
2023-03-12T08:19:48.640Z,0.98
2023-03-12T08:22:50.629Z,0.93
2023-03-12T08:25:53.321Z,0.90
2023-03-12T08:28:54.767Z,0.90
2023-03-12T08:32:04.689Z,1.55
2023-03-12T08:35:06.975Z,1.40
2023-03-12T08:38:08.629Z,1.50
2023-03-12T08:41:10.350Z,2.10
2023-03-12T08:44:11.810Z,2.05
2023-03-12T08:47:13.298Z,2.35
2023-03-12T08:50:16.965Z,2.45
2023-03-12T08:53:18.723Z,2.90
2023-03-12T08:56:20.258Z,2.90
2023-03-12T08:59:22.327Z,2.60
2023-03-12T09:02:24.094Z,2.80
2023-03-12T09:05:28.037Z,2.75
2023-03-12T09:08:29.548Z,3.00
2023-03-12T09:11:32.876Z,3.25
2023-03-12T09:15:02.118Z,3.20
2023-03-12T09:17:55.999Z,3.47
2023-03-12T09:20:57.698Z,2.97
2023-03-12T09:23:59.439Z,3.20
2023-03-12T09:27:01.768Z,3.10
2023-03-12T09:30:03.688Z,3.00
2023-03-12T09:33:05.435Z,2.78
2023-03-12T09:36:07.126Z,2.55
2023-03-12T09:39:08.724Z,3.08
2023-03-12T09:42:37.061Z,2.53
2023-03-12T09:45:43.329Z,2.53
2023-03-12T09:48:47.636Z,2.47
2023-03-12T09:51:54.034Z,2.30
2023-03-12T09:55:17.381Z,2.08
2023-03-12T09:58:33.806Z,2.00
2023-03-12T10:01:37.514Z,2.10
2023-03-12T10:04:58.500Z,2.10
2023-03-12T10:08:23.505Z,2.35
2023-03-12T10:11:28.872Z,1.90
2023-03-12T10:14:42.310Z,1.58
2023-03-12T10:17:43.751Z,1.70
2023-03-12T10:21:17.603Z,1.88
2023-03-12T10:24:40.690Z,2.05
2023-03-12T10:27:42.984Z,1.60
2023-03-12T10:30:55.124Z,1.70
2023-03-12T10:33:59.560Z,1.63
2023-03-12T10:37:11.499Z,1.60
2023-03-12T10:40:16.605Z,1.70
2023-03-12T10:43:18.097Z,1.70
2023-03-12T10:46:37.628Z,1.52
2023-03-12T10:49:39.267Z,1.50
2023-03-12T10:52:41.470Z,1.70
2023-03-12T10:55:43.001Z,1.55
2023-03-12T10:58:49.762Z,1.50
2023-03-12T11:01:52.469Z,1.75
2023-03-12T11:04:54.037Z,1.45
2023-03-12T11:07:56.917Z,1.58
2023-03-12T11:11:00.422Z,1.50
2023-03-12T11:14:24.513Z,1.40
2023-03-12T11:17:28.700Z,1.40
2023-03-12T11:20:30.586Z,1.40
2023-03-12T11:23:32.166Z,1.30
2023-03-12T11:26:57.159Z,1.60
2023-03-12T11:30:00.203Z,1.30
2023-03-12T11:33:02.173Z,1.40
2023-03-12T11:36:23.876Z,1.40
2023-03-12T11:39:40.653Z,1.33
2023-03-12T11:42:57.171Z,1.25
2023-03-12T11:45:58.579Z,1.30
2023-03-12T11:49:39.310Z,1.67
2023-03-12T11:53:03.263Z,1.30
2023-03-12T11:56:19.664Z,1.40
2023-03-12T11:59:30.005Z,1.40
2023-03-12T12:02:44.046Z,1.20
2023-03-12T12:06:23.371Z,1.20
2023-03-12T12:09:49.040Z,1.40
2023-03-12T12:13:24.145Z,1.17
2023-03-12T12:16:34.202Z,1.25
2023-03-12T12:19:58.944Z,1.17
2023-03-12T12:23:03.148Z,1.35
2023-03-12T12:26:18.753Z,1.17
2023-03-12T12:29:50.043Z,1.23
2023-03-12T12:33:22.598Z,1.40
2023-03-12T12:36:27.278Z,1.50
2023-03-12T12:39:32.454Z,1.52
2023-03-12T12:42:39.903Z,1.38
2023-03-12T12:45:44.027Z,1.48
2023-03-12T12:49:09.928Z,1.50
2023-03-12T12:52:20.046Z,1.58
2023-03-12T12:55:32.825Z,1.30
2023-03-12T12:58:46.147Z,1.60
2023-03-12T13:01:48.466Z,1.15
2023-03-12T13:04:50.675Z,1.30
2023-03-12T13:07:52.755Z,1.13
2023-03-12T13:11:02.137Z,1.38
2023-03-12T13:14:10.642Z,1.65
2023-03-12T13:17:35.496Z,1.30
2023-03-12T13:21:06.745Z,1.33
2023-03-12T13:24:29.568Z,1.20
2023-03-12T13:27:39.806Z,1.27
2023-03-12T13:30:41.403Z,1.20
2023-03-12T13:33:48.113Z,1.73
2023-03-12T13:36:59.281Z,1.15
2023-03-12T13:40:02.033Z,1.48
2023-03-12T13:43:09.757Z,1.40
2023-03-12T13:46:39.190Z,1.20
2023-03-12T13:49:58.593Z,1.20
2023-03-12T13:53:16.704Z,1.23
2023-03-12T13:56:20.444Z,1.20
2023-03-12T13:59:24.706Z,1.30
2023-03-12T14:02:43.015Z,1.10
2023-03-12T14:05:50.859Z,1.20
2023-03-12T14:09:26.544Z,1.10
2023-03-12T14:12:36.403Z,1.00
2023-03-12T14:15:58.606Z,1.17
2023-03-12T14:19:02.090Z,1.08
2023-03-12T14:22:07.395Z,1.02
2023-03-12T14:25:31.177Z,1.00
2023-03-12T14:28:40.513Z,1.10
2023-03-12T14:31:42.693Z,1.20
2023-03-12T14:35:16.520Z,1.10
2023-03-12T14:38:23.107Z,1.08
2023-03-12T14:44:32.523Z,1.00
2023-03-12T14:47:45.036Z,0.90
2023-03-12T14:50:48.578Z,1.25
2023-03-12T14:53:50.802Z,1.20
2023-03-12T14:56:52.585Z,1.02
2023-03-12T15:00:01.043Z,1.08
2023-03-12T15:03:07.660Z,0.82
2023-03-12T15:06:24.062Z,0.90
2023-03-12T15:09:28.111Z,1.00
2023-03-12T15:12:34.953Z,1.00
2023-03-12T15:15:41.602Z,1.02
2023-03-12T15:18:43.487Z,1.10
2023-03-12T15:21:45.373Z,1.13
2023-03-12T15:24:47.728Z,0.98
2023-03-12T15:27:59.888Z,0.90
2023-03-12T15:31:12.539Z,0.98
2023-03-12T15:34:32.206Z,0.90
2023-03-12T15:37:38.610Z,1.10
2023-03-12T15:40:40.240Z,0.90
2023-03-12T15:43:45.398Z,1.00
2023-03-12T15:46:56.868Z,1.00
2023-03-12T15:50:10.070Z,0.90
2023-03-12T15:53:11.631Z,1.08
2023-03-12T15:56:13.241Z,0.95
2023-03-12T15:59:24.181Z,1.00
2023-03-12T16:02:37.433Z,1.00
2023-03-12T16:05:40.047Z,0.80
2023-03-12T16:08:44.391Z,0.82
2023-03-12T16:11:46.471Z,0.90
2023-03-12T16:14:48.873Z,1.00
2023-03-12T16:17:50.352Z,0.90
2023-03-12T16:20:53.199Z,0.80
2023-03-12T16:23:54.662Z,1.00
2023-03-12T16:27:00.008Z,1.00
2023-03-12T16:30:01.531Z,1.00
2023-03-12T16:33:08.773Z,1.20
2023-03-12T16:36:16.559Z,1.00
2023-03-12T16:39:19.000Z,0.90
2023-03-12T16:42:21.109Z,1.10
2023-03-12T16:45:22.805Z,1.05
2023-03-12T16:48:24.726Z,1.00
2023-03-12T16:51:28.361Z,0.95
2023-03-12T16:54:29.845Z,1.00
2023-03-12T16:57:39.685Z,1.00
2023-03-12T17:00:41.457Z,0.90
2023-03-12T17:03:45.482Z,0.95
2023-03-12T17:06:47.024Z,1.00
2023-03-12T17:09:48.571Z,0.90
2023-03-12T17:12:50.677Z,1.10
2023-03-12T17:15:52.851Z,0.90
2023-03-12T17:18:54.644Z,1.10
2023-03-12T17:21:56.427Z,1.13
2023-03-12T17:24:57.926Z,1.02
2023-03-12T17:28:00.309Z,1.05
2023-03-12T17:31:02.039Z,1.20
2023-03-12T17:34:04.465Z,0.95
2023-03-12T17:37:05.948Z,0.90
2023-03-12T17:40:09.578Z,1.23
2023-03-12T17:43:11.147Z,1.17
2023-03-12T17:46:12.705Z,1.10
2023-03-12T17:49:14.171Z,1.30
2023-03-12T17:52:15.759Z,1.55
2023-03-12T17:55:17.445Z,1.00
2023-03-12T17:58:18.938Z,1.42
2023-03-12T18:01:20.487Z,1.05
2023-03-12T18:04:21.963Z,1.10
2023-03-12T18:07:23.544Z,1.10
2023-03-12T18:10:25.042Z,1.10
2023-03-12T18:13:26.544Z,1.00
2023-03-12T18:16:28.158Z,1.20
2023-03-12T18:19:30.542Z,1.00
2023-03-12T18:22:32.095Z,1.02
2023-03-12T18:25:33.910Z,1.10
2023-03-12T18:28:35.387Z,1.00
2023-03-12T18:31:36.926Z,1.10
2023-03-12T18:34:42.076Z,1.20
2023-03-12T18:37:44.178Z,1.30
2023-03-12T18:40:45.633Z,1.20
2023-03-12T18:43:47.127Z,1.30
2023-03-12T18:46:50.776Z,1.40
2023-03-12T18:49:54.980Z,1.90
2023-03-12T18:52:56.561Z,1.88
2023-03-12T18:55:58.681Z,1.50
2023-03-12T18:59:00.208Z,1.70
2023-03-12T19:02:03.933Z,1.48
2023-03-12T19:05:06.530Z,1.40
2023-03-12T19:08:08.020Z,1.45
2023-03-12T19:11:12.088Z,1.38
2023-03-12T19:14:14.200Z,1.50
2023-03-12T19:17:15.998Z,1.38
2023-03-12T19:20:17.979Z,1.70
2023-03-12T19:23:19.544Z,1.45
2023-03-12T19:26:21.047Z,1.50
2023-03-12T19:29:22.597Z,1.55
2023-03-12T19:32:27.763Z,1.60
2023-03-12T19:35:38.746Z,1.60
2023-03-12T19:38:40.570Z,1.50
2023-03-12T19:41:42.266Z,1.30
2023-03-12T19:44:43.746Z,1.52
2023-03-12T19:47:45.266Z,1.30
2023-03-12T19:50:46.774Z,1.48
2023-03-12T19:53:48.259Z,1.55
2023-03-12T19:56:49.817Z,1.30
2023-03-12T19:59:51.398Z,1.27
2023-03-12T20:02:53.051Z,1.35
2023-03-12T20:05:54.877Z,1.38
2023-03-12T20:08:56.389Z,1.38
2023-03-12T20:11:57.963Z,1.40
2023-03-12T20:14:59.445Z,1.40
2023-03-12T20:18:00.977Z,2.03
2023-03-12T20:21:02.580Z,1.83
2023-03-12T20:24:05.046Z,1.48
2023-03-12T20:27:06.712Z,1.30
2023-03-12T20:30:09.221Z,1.48
2023-03-12T20:33:10.734Z,1.30
2023-03-12T20:36:13.991Z,1.25
2023-03-12T20:39:15.541Z,1.48
2023-03-12T20:42:17.011Z,1.25
2023-03-12T20:45:18.497Z,1.10
2023-03-12T20:48:19.957Z,1.40
2023-03-12T20:51:21.439Z,1.38
2023-03-12T20:54:23.030Z,1.50
2023-03-12T20:57:24.619Z,1.10
2023-03-12T21:00:26.185Z,1.30
2023-03-12T21:03:27.744Z,1.40
2023-03-12T21:06:29.758Z,1.45
2023-03-12T21:09:31.302Z,1.40
2023-03-12T21:12:32.777Z,1.25
2023-03-12T21:15:34.263Z,1.40
2023-03-12T21:18:35.794Z,1.25
2023-03-12T21:21:38.002Z,1.25
2023-03-12T21:24:39.530Z,1.23
2023-03-12T21:27:49.848Z,1.25
2023-03-12T21:30:52.377Z,1.20
2023-03-12T21:33:57.859Z,1.30
2023-03-12T21:36:59.450Z,1.20
2023-03-12T21:40:01.461Z,1.30
2023-03-12T21:43:03.983Z,1.20
2023-03-12T21:46:11.093Z,1.17
2023-03-12T21:49:13.963Z,1.10
2023-03-12T21:52:15.567Z,1.27
2023-03-12T21:55:17.535Z,1.10
2023-03-12T21:58:18.994Z,1.27
2023-03-12T22:01:20.539Z,1.38
2023-03-12T22:04:22.542Z,1.17
2023-03-12T22:07:24.174Z,1.52
2023-03-12T22:10:25.720Z,1.25
2023-03-12T22:13:27.285Z,1.13
2023-03-12T22:16:28.955Z,1.10
2023-03-12T22:19:30.472Z,1.20
2023-03-12T22:22:33.430Z,1.17
2023-03-12T22:25:35.058Z,1.10
2023-03-12T22:28:36.628Z,1.17
2023-03-12T22:31:38.388Z,1.00
2023-03-12T22:34:39.968Z,1.20
2023-03-12T22:37:44.818Z,1.30
2023-03-12T22:40:46.549Z,1.27
2023-03-12T22:43:49.994Z,1.20
2023-03-12T22:46:52.044Z,1.10
2023-03-12T22:49:53.551Z,1.30
2023-03-12T22:52:55.019Z,1.02
2023-03-12T22:56:07.614Z,1.10
2023-03-12T22:59:09.096Z,1.20
2023-03-12T23:02:10.657Z,1.02
2023-03-12T23:05:12.227Z,1.20
2023-03-12T23:08:13.718Z,1.20
2023-03-12T23:11:16.132Z,1.30
2023-03-12T23:14:18.038Z,1.20
2023-03-12T23:17:19.590Z,1.20
2023-03-12T23:20:23.634Z,1.15
2023-03-12T23:23:26.083Z,1.20
2023-03-12T23:26:29.065Z,1.20
2023-03-12T23:29:31.238Z,1.33
2023-03-12T23:32:34.396Z,1.40
2023-03-12T23:35:36.026Z,1.10
2023-03-12T23:38:37.832Z,1.15
2023-03-12T23:41:39.723Z,1.15
2023-03-12T23:44:41.265Z,1.08
2023-03-12T23:47:42.775Z,1.08
2023-03-12T23:50:44.231Z,1.00
2023-03-12T23:53:47.922Z,1.00
2023-03-12T23:56:49.412Z,1.10
2023-03-12T23:59:50.928Z,1.10
